map of LAP home
LAP - Airport
Location
City:  La Paz, Baja California Sur, México
Name:General Manuel Márquez de León International Airport
ICAO:MMLP
IATA:LAP

Details
Type:Airport (Aerodrome, Airfield)
Use:Public/Civil, International (customs port of entry)
Latitude:24°04'22"N (24.072694)
Longitude:110°21'45"W (-110.362474)
Datum:WGS 1984
Elevation:69 ft (21 m)
Variation:8.59°E (WMM2015 magnetic declination)
-0.09° annual change
Runways:1
Longest:8202 × 148 ft (2500 × 45 m), paved

Time
Time Zone:UTC-7 (DST-6)
Local Time:

Weather
METAR:MMLP 130540Z 00000KT 10SM SCT100 BKN200 20/12 A3001 RMK SLP159 52003 987 8/078

Related Locations
Nearby:
Farthest:RRG: 11941 mi / 19217 km
Plaine Corail [Sir Gaëtan Duval Airport (Plaine Corail Airport)], Rodrigues Island, MU

Find:

   beyond  
but within

Other Information
Maps:
NOTAMs:
Links:
Sources:

  
flag of México
flag of Baja California Sur
  

Sectional Chart

Flight Planning
at skyvector.com

Satellite Image

Google Maps Satellite view

 

Copyright © 2004-2017 Karl L. Swartz. All rights reserved.
The Great Circle Mapper name and logo are trademarks of the Great Circle Mapper.
All other trademarks mentioned herein belong to their respective owners.
Please see credits for attibutions and further copyright information.

  Follow gcmap on Facebook Follow gcmap on Twitter Follow gcmap on Google+ GCmap on LinkedIn

hCard Microformat

Geo Microformat